Aviation Digital Data Service (ADDS)

Output produced by METARs form (2231 UTC 26 April 2015)
found at http://www.aviationweather.gov/adds/metars/
 
KATL 262148Z 2622/2724 29012G24KT P6SM SCT060 
     FM270000 32012KT P6SM SCT080 
     FM270600 35008KT P6SM SCT100 
     FM271500 35012KT P6SM SCT045